sensor_id;sensor_type;location;lat;lon;timestamp;P1;durP1;ratioP1;P2;durP2;ratioP2
17384;SDS011;8810;48.680;8.894;2023-04-25T00:02:19;3.00;;;1.60;;
17384;SDS011;8810;48.680;8.894;2023-04-25T00:04:47;2.47;;;1.33;;
17384;SDS011;8810;48.680;8.894;2023-04-25T00:07:16;3.47;;;1.53;;
17384;SDS011;8810;48.680;8.894;2023-04-25T00:09:42;2.83;;;1.50;;
17384;SDS011;8810;48.680;8.894;2023-04-25T00:12:09;2.67;;;1.67;;
17384;SDS011;8810;48.680;8.894;2023-04-25T00:14:36;3.20;;;1.50;;
17384;SDS011;8810;48.680;8.894;2023-04-25T00:17:03;3.90;;;1.80;;
17384;SDS011;8810;48.680;8.894;2023-04-25T00:19:30;2.73;;;1.70;;
17384;SDS011;8810;48.680;8.894;2023-04-25T00:21:57;4.37;;;1.83;;
17384;SDS011;8810;48.680;8.894;2023-04-25T00:24:26;3.17;;;1.70;;
17384;SDS011;8810;48.680;8.894;2023-04-25T00:26:53;4.03;;;1.70;;
17384;SDS011;8810;48.680;8.894;2023-04-25T00:29:20;2.93;;;1.70;;
17384;SDS011;8810;48.680;8.894;2023-04-25T00:31:46;3.70;;;1.83;;
17384;SDS011;8810;48.680;8.894;2023-04-25T00:34:13;2.23;;;1.67;;
17384;SDS011;8810;48.680;8.894;2023-04-25T00:36:40;3.90;;;2.17;;
17384;SDS011;8810;48.680;8.894;2023-04-25T00:39:07;3.37;;;1.50;;
17384;SDS011;8810;48.680;8.894;2023-04-25T00:41:35;2.73;;;1.80;;
17384;SDS011;8810;48.680;8.894;2023-04-25T00:44:03;2.43;;;1.50;;
17384;SDS011;8810;48.680;8.894;2023-04-25T00:46:31;3.80;;;1.70;;
17384;SDS011;8810;48.680;8.894;2023-04-25T00:48:58;3.73;;;1.63;;
17384;SDS011;8810;48.680;8.894;2023-04-25T00:51:25;3.23;;;1.70;;
17384;SDS011;8810;48.680;8.894;2023-04-25T00:53:53;4.27;;;1.90;;
17384;SDS011;8810;48.680;8.894;2023-04-25T00:56:19;3.20;;;1.90;;
17384;SDS011;8810;48.680;8.894;2023-04-25T00:58:48;2.80;;;1.60;;
17384;SDS011;8810;48.680;8.894;2023-04-25T01:01:18;3.37;;;1.80;;
17384;SDS011;8810;48.680;8.894;2023-04-25T01:03:45;2.47;;;1.83;;
17384;SDS011;8810;48.680;8.894;2023-04-25T01:06:15;1.67;;;1.40;;
17384;SDS011;8810;48.680;8.894;2023-04-25T01:08:42;2.43;;;1.47;;
17384;SDS011;8810;48.680;8.894;2023-04-25T01:11:09;3.50;;;1.63;;
17384;SDS011;8810;48.680;8.894;2023-04-25T01:13:36;4.43;;;2.30;;
17384;SDS011;8810;48.680;8.894;2023-04-25T01:16:04;7.23;;;2.80;;
17384;SDS011;8810;48.680;8.894;2023-04-25T01:18:31;4.37;;;2.20;;
17384;SDS011;8810;48.680;8.894;2023-04-25T01:21:03;4.00;;;2.13;;
17384;SDS011;8810;48.680;8.894;2023-04-25T01:23:34;5.33;;;2.50;;
17384;SDS011;8810;48.680;8.894;2023-04-25T01:26:01;2.60;;;1.77;;
17384;SDS011;8810;48.680;8.894;2023-04-25T01:28:29;2.00;;;1.60;;
17384;SDS011;8810;48.680;8.894;2023-04-25T01:30:56;2.30;;;1.40;;
17384;SDS011;8810;48.680;8.894;2023-04-25T01:33:23;2.17;;;1.60;;
17384;SDS011;8810;48.680;8.894;2023-04-25T01:35:50;3.33;;;1.50;;
17384;SDS011;8810;48.680;8.894;2023-04-25T01:38:19;2.67;;;1.50;;
17384;SDS011;8810;48.680;8.894;2023-04-25T01:40:46;4.30;;;1.70;;
17384;SDS011;8810;48.680;8.894;2023-04-25T01:43:12;4.70;;;1.60;;
17384;SDS011;8810;48.680;8.894;2023-04-25T01:45:40;2.37;;;1.63;;
17384;SDS011;8810;48.680;8.894;2023-04-25T01:48:07;2.80;;;1.60;;
17384;SDS011;8810;48.680;8.894;2023-04-25T01:50:34;1.50;;;1.40;;
17384;SDS011;8810;48.680;8.894;2023-04-25T01:53:01;2.13;;;1.30;;
17384;SDS011;8810;48.680;8.894;2023-04-25T01:55:29;4.47;;;2.00;;
17384;SDS011;8810;48.680;8.894;2023-04-25T01:57:56;3.30;;;1.70;;
17384;SDS011;8810;48.680;8.894;2023-04-25T02:00:25;3.00;;;2.03;;
17384;SDS011;8810;48.680;8.894;2023-04-25T02:02:52;5.27;;;2.23;;
17384;SDS011;8810;48.680;8.894;2023-04-25T02:05:18;2.67;;;1.30;;
17384;SDS011;8810;48.680;8.894;2023-04-25T02:07:46;5.30;;;1.60;;
17384;SDS011;8810;48.680;8.894;2023-04-25T02:10:14;2.90;;;1.40;;
17384;SDS011;8810;48.680;8.894;2023-04-25T02:12:42;3.17;;;1.63;;
17384;SDS011;8810;48.680;8.894;2023-04-25T02:15:09;2.53;;;1.40;;
17384;SDS011;8810;48.680;8.894;2023-04-25T02:17:36;1.90;;;1.50;;
17384;SDS011;8810;48.680;8.894;2023-04-25T02:20:04;1.90;;;1.33;;
17384;SDS011;8810;48.680;8.894;2023-04-25T02:22:32;7.60;;;1.67;;
17384;SDS011;8810;48.680;8.894;2023-04-25T02:25:00;5.50;;;1.87;;
17384;SDS011;8810;48.680;8.894;2023-04-25T02:27:29;3.40;;;1.70;;
17384;SDS011;8810;48.680;8.894;2023-04-25T02:29:57;4.27;;;1.53;;
17384;SDS011;8810;48.680;8.894;2023-04-25T02:32:24;2.10;;;1.20;;
17384;SDS011;8810;48.680;8.894;2023-04-25T02:34:52;3.00;;;1.40;;
17384;SDS011;8810;48.680;8.894;2023-04-25T02:37:19;3.10;;;1.73;;
17384;SDS011;8810;48.680;8.894;2023-04-25T02:39:46;4.43;;;1.60;;
17384;SDS011;8810;48.680;8.894;2023-04-25T02:42:12;2.70;;;1.87;;
17384;SDS011;8810;48.680;8.894;2023-04-25T02:44:39;3.30;;;1.60;;
17384;SDS011;8810;48.680;8.894;2023-04-25T02:47:08;2.83;;;1.83;;
17384;SDS011;8810;48.680;8.894;2023-04-25T02:49:34;2.67;;;1.80;;
17384;SDS011;8810;48.680;8.894;2023-04-25T02:52:01;2.30;;;1.50;;
17384;SDS011;8810;48.680;8.894;2023-04-25T02:54:28;4.10;;;1.40;;
17384;SDS011;8810;48.680;8.894;2023-04-25T02:56:55;2.50;;;1.70;;
17384;SDS011;8810;48.680;8.894;2023-04-25T02:59:22;3.43;;;1.50;;
17384;SDS011;8810;48.680;8.894;2023-04-25T03:01:49;2.50;;;1.60;;
17384;SDS011;8810;48.680;8.894;2023-04-25T03:04:17;2.73;;;1.60;;
17384;SDS011;8810;48.680;8.894;2023-04-25T03:06:45;2.23;;;1.40;;
17384;SDS011;8810;48.680;8.894;2023-04-25T03:09:12;3.57;;;1.63;;
17384;SDS011;8810;48.680;8.894;2023-04-25T03:11:39;5.33;;;1.50;;
17384;SDS011;8810;48.680;8.894;2023-04-25T03:14:06;1.80;;;1.60;;
17384;SDS011;8810;48.680;8.894;2023-04-25T03:16:33;4.20;;;1.50;;
17384;SDS011;8810;48.680;8.894;2023-04-25T03:19:00;4.13;;;1.50;;
17384;SDS011;8810;48.680;8.894;2023-04-25T03:21:29;1.80;;;1.40;;
17384;SDS011;8810;48.680;8.894;2023-04-25T03:23:57;3.40;;;1.90;;
17384;SDS011;8810;48.680;8.894;2023-04-25T03:26:24;2.63;;;1.80;;
17384;SDS011;8810;48.680;8.894;2023-04-25T03:28:51;4.33;;;1.60;;
17384;SDS011;8810;48.680;8.894;2023-04-25T03:31:17;3.53;;;1.77;;
17384;SDS011;8810;48.680;8.894;2023-04-25T03:33:44;2.80;;;2.00;;
17384;SDS011;8810;48.680;8.894;2023-04-25T03:36:11;3.10;;;1.67;;
17384;SDS011;8810;48.680;8.894;2023-04-25T03:38:39;1.90;;;1.60;;
17384;SDS011;8810;48.680;8.894;2023-04-25T03:41:07;3.17;;;1.80;;
17384;SDS011;8810;48.680;8.894;2023-04-25T03:43:34;1.80;;;1.50;;
17384;SDS011;8810;48.680;8.894;2023-04-25T03:46:01;2.83;;;1.70;;
17384;SDS011;8810;48.680;8.894;2023-04-25T03:48:28;2.40;;;1.80;;
17384;SDS011;8810;48.680;8.894;2023-04-25T03:50:54;3.20;;;2.17;;
17384;SDS011;8810;48.680;8.894;2023-04-25T03:53:21;2.70;;;1.77;;
17384;SDS011;8810;48.680;8.894;2023-04-25T03:55:49;2.40;;;1.93;;
17384;SDS011;8810;48.680;8.894;2023-04-25T03:58:16;3.77;;;1.80;;
17384;SDS011;8810;48.680;8.894;2023-04-25T04:00:43;2.43;;;1.70;;
17384;SDS011;8810;48.680;8.894;2023-04-25T04:03:10;5.00;;;2.10;;
17384;SDS011;8810;48.680;8.894;2023-04-25T04:05:37;4.13;;;2.43;;
17384;SDS011;8810;48.680;8.894;2023-04-25T04:08:05;2.30;;;1.97;;
17384;SDS011;8810;48.680;8.894;2023-04-25T04:10:32;2.97;;;1.93;;
17384;SDS011;8810;48.680;8.894;2023-04-25T04:13:01;4.37;;;1.97;;
17384;SDS011;8810;48.680;8.894;2023-04-25T04:15:29;3.30;;;2.17;;
17384;SDS011;8810;48.680;8.894;2023-04-25T04:17:57;2.40;;;1.60;;
17384;SDS011;8810;48.680;8.894;2023-04-25T04:20:27;3.70;;;2.10;;
17384;SDS011;8810;48.680;8.894;2023-04-25T04:22:54;3.43;;;1.83;;
17384;SDS011;8810;48.680;8.894;2023-04-25T04:25:21;5.63;;;3.57;;
17384;SDS011;8810;48.680;8.894;2023-04-25T04:27:49;4.43;;;3.13;;
17384;SDS011;8810;48.680;8.894;2023-04-25T04:30:20;3.70;;;2.70;;
17384;SDS011;8810;48.680;8.894;2023-04-25T04:32:49;3.40;;;2.70;;
17384;SDS011;8810;48.680;8.894;2023-04-25T04:35:16;6.67;;;3.20;;
17384;SDS011;8810;48.680;8.894;2023-04-25T04:37:43;5.63;;;3.47;;
17384;SDS011;8810;48.680;8.894;2023-04-25T04:40:10;3.70;;;2.77;;
17384;SDS011;8810;48.680;8.894;2023-04-25T04:42:40;3.77;;;2.57;;
17384;SDS011;8810;48.680;8.894;2023-04-25T04:45:07;5.30;;;2.50;;
17384;SDS011;8810;48.680;8.894;2023-04-25T04:47:36;5.17;;;2.17;;
17384;SDS011;8810;48.680;8.894;2023-04-25T04:50:04;5.57;;;2.63;;
17384;SDS011;8810;48.680;8.894;2023-04-25T04:52:33;6.17;;;3.37;;
17384;SDS011;8810;48.680;8.894;2023-04-25T04:55:00;6.70;;;3.17;;
17384;SDS011;8810;48.680;8.894;2023-04-25T04:57:27;5.33;;;2.93;;
17384;SDS011;8810;48.680;8.894;2023-04-25T04:59:54;5.90;;;2.73;;
17384;SDS011;8810;48.680;8.894;2023-04-25T05:02:21;4.10;;;2.50;;
17384;SDS011;8810;48.680;8.894;2023-04-25T05:04:49;3.20;;;2.40;;
17384;SDS011;8810;48.680;8.894;2023-04-25T05:07:16;7.27;;;3.00;;
17384;SDS011;8810;48.680;8.894;2023-04-25T05:09:43;5.40;;;2.70;;
17384;SDS011;8810;48.680;8.894;2023-04-25T05:12:10;2.73;;;1.80;;
17384;SDS011;8810;48.680;8.894;2023-04-25T05:14:37;5.43;;;1.87;;
17384;SDS011;8810;48.680;8.894;2023-04-25T05:17:04;3.87;;;2.40;;
17384;SDS011;8810;48.680;8.894;2023-04-25T05:19:33;4.10;;;2.40;;
17384;SDS011;8810;48.680;8.894;2023-04-25T05:22:02;6.17;;;2.60;;
17384;SDS011;8810;48.680;8.894;2023-04-25T05:24:29;3.47;;;2.60;;
17384;SDS011;8810;48.680;8.894;2023-04-25T05:26:56;4.10;;;2.30;;
17384;SDS011;8810;48.680;8.894;2023-04-25T05:29:23;5.30;;;2.50;;
17384;SDS011;8810;48.680;8.894;2023-04-25T05:31:50;3.70;;;2.70;;
17384;SDS011;8810;48.680;8.894;2023-04-25T05:34:18;5.13;;;3.63;;
17384;SDS011;8810;48.680;8.894;2023-04-25T05:36:45;7.73;;;3.10;;
17384;SDS011;8810;48.680;8.894;2023-04-25T05:39:14;6.47;;;2.50;;
17384;SDS011;8810;48.680;8.894;2023-04-25T05:41:42;4.80;;;2.80;;
17384;SDS011;8810;48.680;8.894;2023-04-25T05:44:08;6.70;;;2.70;;
17384;SDS011;8810;48.680;8.894;2023-04-25T05:46:35;4.20;;;2.67;;
17384;SDS011;8810;48.680;8.894;2023-04-25T05:49:02;4.10;;;2.73;;
17384;SDS011;8810;48.680;8.894;2023-04-25T05:51:29;5.67;;;3.23;;
17384;SDS011;8810;48.680;8.894;2023-04-25T05:53:56;6.93;;;3.20;;
17384;SDS011;8810;48.680;8.894;2023-04-25T05:56:24;4.50;;;3.17;;
17384;SDS011;8810;48.680;8.894;2023-04-25T05:58:51;5.43;;;3.67;;
17384;SDS011;8810;48.680;8.894;2023-04-25T06:01:18;10.37;;;5.40;;
17384;SDS011;8810;48.680;8.894;2023-04-25T06:03:45;11.57;;;6.63;;
17384;SDS011;8810;48.680;8.894;2023-04-25T06:06:12;7.87;;;3.93;;
17384;SDS011;8810;48.680;8.894;2023-04-25T06:08:39;14.03;;;9.30;;
17384;SDS011;8810;48.680;8.894;2023-04-25T06:11:06;8.33;;;4.70;;
17384;SDS011;8810;48.680;8.894;2023-04-25T06:13:34;5.97;;;3.30;;
17384;SDS011;8810;48.680;8.894;2023-04-25T06:16:01;5.17;;;3.93;;
17384;SDS011;8810;48.680;8.894;2023-04-25T06:18:28;8.80;;;3.60;;
17384;SDS011;8810;48.680;8.894;2023-04-25T06:20:55;5.47;;;3.07;;
17384;SDS011;8810;48.680;8.894;2023-04-25T06:23:22;3.97;;;3.10;;
17384;SDS011;8810;48.680;8.894;2023-04-25T06:25:49;6.03;;;4.30;;
17384;SDS011;8810;48.680;8.894;2023-04-25T06:28:16;5.43;;;3.37;;
17384;SDS011;8810;48.680;8.894;2023-04-25T06:30:44;5.83;;;2.93;;
17384;SDS011;8810;48.680;8.894;2023-04-25T06:33:11;3.90;;;2.70;;
17384;SDS011;8810;48.680;8.894;2023-04-25T06:35:37;6.40;;;2.40;;
17384;SDS011;8810;48.680;8.894;2023-04-25T06:38:04;5.73;;;2.87;;
17384;SDS011;8810;48.680;8.894;2023-04-25T06:40:31;3.83;;;2.10;;
17384;SDS011;8810;48.680;8.894;2023-04-25T06:42:58;4.40;;;2.53;;
17384;SDS011;8810;48.680;8.894;2023-04-25T06:45:25;6.13;;;3.10;;
17384;SDS011;8810;48.680;8.894;2023-04-25T06:47:53;12.67;;;3.63;;
17384;SDS011;8810;48.680;8.894;2023-04-25T06:50:20;2.87;;;2.30;;
17384;SDS011;8810;48.680;8.894;2023-04-25T06:52:47;4.93;;;2.57;;
17384;SDS011;8810;48.680;8.894;2023-04-25T06:55:14;6.73;;;3.70;;
17384;SDS011;8810;48.680;8.894;2023-04-25T06:57:41;6.77;;;4.70;;
17384;SDS011;8810;48.680;8.894;2023-04-25T07:00:08;5.23;;;3.27;;
17384;SDS011;8810;48.680;8.894;2023-04-25T07:02:35;5.60;;;3.23;;
17384;SDS011;8810;48.680;8.894;2023-04-25T07:05:04;5.50;;;3.07;;
17384;SDS011;8810;48.680;8.894;2023-04-25T07:07:31;7.03;;;3.47;;
17384;SDS011;8810;48.680;8.894;2023-04-25T07:09:58;9.27;;;4.13;;
17384;SDS011;8810;48.680;8.894;2023-04-25T07:12:25;5.53;;;4.20;;
17384;SDS011;8810;48.680;8.894;2023-04-25T07:14:52;4.53;;;3.33;;
17384;SDS011;8810;48.680;8.894;2023-04-25T07:17:19;6.60;;;3.80;;
17384;SDS011;8810;48.680;8.894;2023-04-25T07:19:46;5.70;;;3.87;;
17384;SDS011;8810;48.680;8.894;2023-04-25T07:22:14;4.33;;;3.43;;
17384;SDS011;8810;48.680;8.894;2023-04-25T07:24:41;5.20;;;4.07;;
17384;SDS011;8810;48.680;8.894;2023-04-25T07:27:07;4.80;;;3.63;;
17384;SDS011;8810;48.680;8.894;2023-04-25T07:29:34;5.20;;;3.60;;
17384;SDS011;8810;48.680;8.894;2023-04-25T07:32:02;3.33;;;3.03;;
17384;SDS011;8810;48.680;8.894;2023-04-25T07:34:29;6.23;;;3.67;;
17384;SDS011;8810;48.680;8.894;2023-04-25T07:36:57;7.00;;;3.40;;
17384;SDS011;8810;48.680;8.894;2023-04-25T07:39:26;4.97;;;3.50;;
17384;SDS011;8810;48.680;8.894;2023-04-25T07:41:53;4.43;;;3.30;;
17384;SDS011;8810;48.680;8.894;2023-04-25T07:44:20;6.97;;;3.90;;
17384;SDS011;8810;48.680;8.894;2023-04-25T07:46:47;6.30;;;3.47;;
17384;SDS011;8810;48.680;8.894;2023-04-25T07:49:14;5.63;;;3.07;;
17384;SDS011;8810;48.680;8.894;2023-04-25T07:51:41;5.53;;;4.10;;
17384;SDS011;8810;48.680;8.894;2023-04-25T07:54:08;6.43;;;3.70;;
17384;SDS011;8810;48.680;8.894;2023-04-25T07:56:36;5.37;;;3.93;;
17384;SDS011;8810;48.680;8.894;2023-04-25T07:59:03;5.60;;;3.97;;
17384;SDS011;8810;48.680;8.894;2023-04-25T08:01:30;6.10;;;4.33;;
17384;SDS011;8810;48.680;8.894;2023-04-25T08:03:57;9.47;;;4.77;;
17384;SDS011;8810;48.680;8.894;2023-04-25T08:06:24;9.50;;;5.70;;
17384;SDS011;8810;48.680;8.894;2023-04-25T08:08:50;9.87;;;6.03;;
17384;SDS011;8810;48.680;8.894;2023-04-25T08:11:17;8.57;;;5.47;;
17384;SDS011;8810;48.680;8.894;2023-04-25T08:13:45;11.80;;;6.13;;
17384;SDS011;8810;48.680;8.894;2023-04-25T08:16:12;9.17;;;6.10;;
17384;SDS011;8810;48.680;8.894;2023-04-25T08:18:39;10.43;;;6.17;;
17384;SDS011;8810;48.680;8.894;2023-04-25T08:21:06;9.07;;;5.80;;
17384;SDS011;8810;48.680;8.894;2023-04-25T08:23:36;10.77;;;5.70;;
17384;SDS011;8810;48.680;8.894;2023-04-25T08:26:03;13.33;;;6.70;;
17384;SDS011;8810;48.680;8.894;2023-04-25T08:28:30;9.93;;;6.33;;
17384;SDS011;8810;48.680;8.894;2023-04-25T08:30:59;10.63;;;5.80;;
17384;SDS011;8810;48.680;8.894;2023-04-25T08:33:25;9.60;;;5.87;;
17384;SDS011;8810;48.680;8.894;2023-04-25T08:35:52;8.23;;;4.77;;
17384;SDS011;8810;48.680;8.894;2023-04-25T08:38:19;7.93;;;4.97;;
17384;SDS011;8810;48.680;8.894;2023-04-25T08:40:48;9.13;;;5.27;;
17384;SDS011;8810;48.680;8.894;2023-04-25T08:43:17;10.53;;;5.93;;
17384;SDS011;8810;48.680;8.894;2023-04-25T08:45:45;11.93;;;5.83;;
17384;SDS011;8810;48.680;8.894;2023-04-25T08:48:15;7.60;;;5.30;;
17384;SDS011;8810;48.680;8.894;2023-04-25T08:50:45;6.77;;;4.63;;
17384;SDS011;8810;48.680;8.894;2023-04-25T08:53:15;7.03;;;4.57;;
17384;SDS011;8810;48.680;8.894;2023-04-25T08:55:45;9.40;;;5.40;;
17384;SDS011;8810;48.680;8.894;2023-04-25T08:58:12;7.10;;;4.97;;
17384;SDS011;8810;48.680;8.894;2023-04-25T09:00:39;7.57;;;4.27;;
17384;SDS011;8810;48.680;8.894;2023-04-25T09:03:06;10.07;;;4.20;;
17384;SDS011;8810;48.680;8.894;2023-04-25T09:05:34;5.83;;;3.40;;
17384;SDS011;8810;48.680;8.894;2023-04-25T09:08:03;6.63;;;3.30;;
17384;SDS011;8810;48.680;8.894;2023-04-25T09:10:29;3.27;;;2.40;;
17384;SDS011;8810;48.680;8.894;2023-04-25T09:13:03;3.10;;;2.10;;
17384;SDS011;8810;48.680;8.894;2023-04-25T09:15:31;3.20;;;2.17;;
17384;SDS011;8810;48.680;8.894;2023-04-25T09:17:59;4.43;;;2.13;;
17384;SDS011;8810;48.680;8.894;2023-04-25T09:20:26;3.43;;;1.53;;
17384;SDS011;8810;48.680;8.894;2023-04-25T09:23:04;2.23;;;1.70;;
17384;SDS011;8810;48.680;8.894;2023-04-25T09:25:35;2.40;;;1.67;;
17384;SDS011;8810;48.680;8.894;2023-04-25T09:28:04;2.17;;;1.70;;
17384;SDS011;8810;48.680;8.894;2023-04-25T09:30:32;3.33;;;1.33;;
17384;SDS011;8810;48.680;8.894;2023-04-25T09:33:03;1.73;;;1.40;;
17384;SDS011;8810;48.680;8.894;2023-04-25T09:35:34;1.97;;;1.47;;
17384;SDS011;8810;48.680;8.894;2023-04-25T09:38:07;1.83;;;1.40;;
17384;SDS011;8810;48.680;8.894;2023-04-25T09:40:38;2.23;;;1.50;;
17384;SDS011;8810;48.680;8.894;2023-04-25T09:43:08;1.60;;;1.20;;
17384;SDS011;8810;48.680;8.894;2023-04-25T09:45:40;1.20;;;0.90;;
17384;SDS011;8810;48.680;8.894;2023-04-25T09:48:11;1.47;;;0.97;;
17384;SDS011;8810;48.680;8.894;2023-04-25T09:50:38;0.90;;;0.70;;
17384;SDS011;8810;48.680;8.894;2023-04-25T09:53:05;1.00;;;0.80;;
17384;SDS011;8810;48.680;8.894;2023-04-25T09:55:34;1.63;;;1.23;;
17384;SDS011;8810;48.680;8.894;2023-04-25T09:58:03;1.50;;;1.30;;
17384;SDS011;8810;48.680;8.894;2023-04-25T10:00:32;1.17;;;0.73;;
17384;SDS011;8810;48.680;8.894;2023-04-25T10:03:00;2.80;;;0.90;;
17384;SDS011;8810;48.680;8.894;2023-04-25T10:05:30;0.93;;;0.60;;
17384;SDS011;8810;48.680;8.894;2023-04-25T10:07:58;0.87;;;0.70;;
17384;SDS011;8810;48.680;8.894;2023-04-25T10:10:28;0.53;;;0.50;;
17384;SDS011;8810;48.680;8.894;2023-04-25T10:13:02;1.10;;;0.70;;
17384;SDS011;8810;48.680;8.894;2023-04-25T10:15:34;1.47;;;0.90;;
17384;SDS011;8810;48.680;8.894;2023-04-25T10:18:02;1.57;;;0.80;;
17384;SDS011;8810;48.680;8.894;2023-04-25T10:20:29;2.90;;;1.67;;
17384;SDS011;8810;48.680;8.894;2023-04-25T10:22:58;2.77;;;1.20;;
17384;SDS011;8810;48.680;8.894;2023-04-25T10:25:33;0.90;;;0.70;;
17384;SDS011;8810;48.680;8.894;2023-04-25T10:28:02;0.90;;;0.70;;
17384;SDS011;8810;48.680;8.894;2023-04-25T10:30:30;0.80;;;0.50;;
17384;SDS011;8810;48.680;8.894;2023-04-25T10:32:58;0.93;;;0.37;;
17384;SDS011;8810;48.680;8.894;2023-04-25T10:35:25;0.30;;;0.30;;
17384;SDS011;8810;48.680;8.894;2023-04-25T10:38:00;0.20;;;0.20;;
17384;SDS011;8810;48.680;8.894;2023-04-25T10:40:29;0.40;;;0.40;;
17384;SDS011;8810;48.680;8.894;2023-04-25T10:42:56;0.97;;;0.40;;
17384;SDS011;8810;48.680;8.894;2023-04-25T10:46:00;1.63;;;0.33;;
17384;SDS011;8810;48.680;8.894;2023-04-25T10:48:27;0.97;;;0.40;;
17384;SDS011;8810;48.680;8.894;2023-04-25T10:51:06;0.90;;;0.60;;
17384;SDS011;8810;48.680;8.894;2023-04-25T10:53:34;0.40;;;0.30;;
17384;SDS011;8810;48.680;8.894;2023-04-25T10:56:08;0.57;;;0.40;;
17384;SDS011;8810;48.680;8.894;2023-04-25T10:58:36;1.30;;;0.80;;
17384;SDS011;8810;48.680;8.894;2023-04-25T11:01:09;0.50;;;0.50;;
17384;SDS011;8810;48.680;8.894;2023-04-25T11:03:38;0.40;;;0.40;;
17384;SDS011;8810;48.680;8.894;2023-04-25T11:06:09;0.43;;;0.40;;
17384;SDS011;8810;48.680;8.894;2023-04-25T11:08:46;0.40;;;0.37;;
17384;SDS011;8810;48.680;8.894;2023-04-25T11:11:14;3.50;;;0.70;;
17384;SDS011;8810;48.680;8.894;2023-04-25T11:13:42;4.03;;;0.50;;
17384;SDS011;8810;48.680;8.894;2023-04-25T11:16:10;0.97;;;0.60;;
17384;SDS011;8810;48.680;8.894;2023-04-25T11:18:37;1.80;;;0.70;;
17384;SDS011;8810;48.680;8.894;2023-04-25T11:21:04;1.27;;;0.73;;
17384;SDS011;8810;48.680;8.894;2023-04-25T11:23:31;0.50;;;0.50;;
17384;SDS011;8810;48.680;8.894;2023-04-25T11:25:58;0.80;;;0.60;;
17384;SDS011;8810;48.680;8.894;2023-04-25T11:28:26;1.90;;;1.60;;
17384;SDS011;8810;48.680;8.894;2023-04-25T11:30:53;2.77;;;1.77;;
17384;SDS011;8810;48.680;8.894;2023-04-25T11:33:24;2.47;;;1.80;;
17384;SDS011;8810;48.680;8.894;2023-04-25T11:35:52;3.00;;;2.10;;
17384;SDS011;8810;48.680;8.894;2023-04-25T11:38:21;3.43;;;2.30;;
17384;SDS011;8810;48.680;8.894;2023-04-25T11:40:51;3.77;;;2.20;;
17384;SDS011;8810;48.680;8.894;2023-04-25T11:43:19;3.10;;;2.33;;
17384;SDS011;8810;48.680;8.894;2023-04-25T11:45:47;3.60;;;2.60;;
17384;SDS011;8810;48.680;8.894;2023-04-25T11:48:14;4.70;;;3.03;;
17384;SDS011;8810;48.680;8.894;2023-04-25T11:50:43;4.57;;;3.17;;
17384;SDS011;8810;48.680;8.894;2023-04-25T11:53:10;5.57;;;3.87;;
17384;SDS011;8810;48.680;8.894;2023-04-25T11:55:37;5.00;;;3.70;;
17384;SDS011;8810;48.680;8.894;2023-04-25T11:58:05;4.97;;;3.63;;
17384;SDS011;8810;48.680;8.894;2023-04-25T12:00:32;6.23;;;4.30;;
17384;SDS011;8810;48.680;8.894;2023-04-25T12:02:59;5.73;;;4.20;;
17384;SDS011;8810;48.680;8.894;2023-04-25T12:05:28;8.47;;;4.50;;
17384;SDS011;8810;48.680;8.894;2023-04-25T12:07:59;8.07;;;4.37;;
17384;SDS011;8810;48.680;8.894;2023-04-25T12:10:37;6.57;;;3.53;;
17384;SDS011;8810;48.680;8.894;2023-04-25T12:13:17;5.80;;;3.80;;
17384;SDS011;8810;48.680;8.894;2023-04-25T12:15:45;7.27;;;4.00;;
17384;SDS011;8810;48.680;8.894;2023-04-25T12:18:12;6.53;;;4.23;;
17384;SDS011;8810;48.680;8.894;2023-04-25T12:20:39;5.03;;;3.80;;
17384;SDS011;8810;48.680;8.894;2023-04-25T12:23:07;4.57;;;3.70;;
17384;SDS011;8810;48.680;8.894;2023-04-25T12:25:34;7.60;;;4.50;;
17384;SDS011;8810;48.680;8.894;2023-04-25T12:28:10;4.33;;;2.80;;
17384;SDS011;8810;48.680;8.894;2023-04-25T12:30:56;4.00;;;2.17;;
17384;SDS011;8810;48.680;8.894;2023-04-25T12:33:24;2.73;;;2.20;;
17384;SDS011;8810;48.680;8.894;2023-04-25T12:35:52;4.10;;;2.20;;
17384;SDS011;8810;48.680;8.894;2023-04-25T12:38:24;3.33;;;2.43;;
17384;SDS011;8810;48.680;8.894;2023-04-25T12:40:51;4.63;;;2.83;;
17384;SDS011;8810;48.680;8.894;2023-04-25T12:43:19;3.40;;;2.83;;
17384;SDS011;8810;48.680;8.894;2023-04-25T12:45:47;3.47;;;2.40;;
17384;SDS011;8810;48.680;8.894;2023-04-25T12:48:15;4.63;;;2.70;;
17384;SDS011;8810;48.680;8.894;2023-04-25T12:50:41;4.57;;;3.10;;
17384;SDS011;8810;48.680;8.894;2023-04-25T12:53:09;4.30;;;3.00;;
17384;SDS011;8810;48.680;8.894;2023-04-25T12:55:37;7.03;;;4.03;;
17384;SDS011;8810;48.680;8.894;2023-04-25T12:58:05;4.00;;;3.13;;
17384;SDS011;8810;48.680;8.894;2023-04-25T13:00:32;3.37;;;2.67;;
17384;SDS011;8810;48.680;8.894;2023-04-25T13:02:59;4.57;;;3.27;;
17384;SDS011;8810;48.680;8.894;2023-04-25T13:05:27;3.93;;;3.00;;
17384;SDS011;8810;48.680;8.894;2023-04-25T13:07:55;4.73;;;3.00;;
17384;SDS011;8810;48.680;8.894;2023-04-25T13:10:22;3.53;;;2.50;;
17384;SDS011;8810;48.680;8.894;2023-04-25T13:12:50;2.67;;;2.37;;
17384;SDS011;8810;48.680;8.894;2023-04-25T13:15:18;2.27;;;2.00;;
17384;SDS011;8810;48.680;8.894;2023-04-25T13:17:46;1.93;;;1.60;;
17384;SDS011;8810;48.680;8.894;2023-04-25T13:20:13;2.63;;;1.87;;
17384;SDS011;8810;48.680;8.894;2023-04-25T13:22:41;1.80;;;1.57;;
17384;SDS011;8810;48.680;8.894;2023-04-25T13:25:10;4.03;;;2.70;;
17384;SDS011;8810;48.680;8.894;2023-04-25T13:27:37;3.17;;;2.83;;
17384;SDS011;8810;48.680;8.894;2023-04-25T13:30:08;4.97;;;3.30;;
17384;SDS011;8810;48.680;8.894;2023-04-25T13:32:35;4.73;;;3.20;;
17384;SDS011;8810;48.680;8.894;2023-04-25T13:35:03;7.07;;;2.93;;
17384;SDS011;8810;48.680;8.894;2023-04-25T13:37:31;7.00;;;3.90;;
17384;SDS011;8810;48.680;8.894;2023-04-25T13:39:58;7.63;;;4.13;;
17384;SDS011;8810;48.680;8.894;2023-04-25T13:42:28;8.13;;;4.27;;
17384;SDS011;8810;48.680;8.894;2023-04-25T13:44:55;7.47;;;3.63;;
17384;SDS011;8810;48.680;8.894;2023-04-25T13:47:25;12.60;;;6.40;;
17384;SDS011;8810;48.680;8.894;2023-04-25T13:49:52;10.47;;;4.87;;
17384;SDS011;8810;48.680;8.894;2023-04-25T13:52:19;9.50;;;5.50;;
17384;SDS011;8810;48.680;8.894;2023-04-25T13:54:46;7.03;;;3.77;;
17384;SDS011;8810;48.680;8.894;2023-04-25T13:57:13;6.50;;;4.03;;
17384;SDS011;8810;48.680;8.894;2023-04-25T13:59:40;5.20;;;3.90;;
17384;SDS011;8810;48.680;8.894;2023-04-25T14:02:07;8.60;;;4.43;;
17384;SDS011;8810;48.680;8.894;2023-04-25T14:04:35;5.87;;;3.63;;
17384;SDS011;8810;48.680;8.894;2023-04-25T14:07:02;7.50;;;3.77;;
17384;SDS011;8810;48.680;8.894;2023-04-25T14:09:30;6.03;;;3.53;;
17384;SDS011;8810;48.680;8.894;2023-04-25T14:11:57;7.53;;;3.20;;
17384;SDS011;8810;48.680;8.894;2023-04-25T14:14:23;3.93;;;2.67;;
17384;SDS011;8810;48.680;8.894;2023-04-25T14:16:50;3.03;;;2.40;;
17384;SDS011;8810;48.680;8.894;2023-04-25T14:19:19;3.07;;;2.47;;
17384;SDS011;8810;48.680;8.894;2023-04-25T14:21:48;2.70;;;2.20;;
17384;SDS011;8810;48.680;8.894;2023-04-25T14:24:15;2.73;;;2.10;;
17384;SDS011;8810;48.680;8.894;2023-04-25T14:26:41;3.10;;;2.10;;
17384;SDS011;8810;48.680;8.894;2023-04-25T14:29:09;2.87;;;2.03;;
17384;SDS011;8810;48.680;8.894;2023-04-25T14:31:37;3.80;;;1.90;;
17384;SDS011;8810;48.680;8.894;2023-04-25T14:34:05;1.83;;;1.60;;
17384;SDS011;8810;48.680;8.894;2023-04-25T14:36:33;3.30;;;1.60;;
17384;SDS011;8810;48.680;8.894;2023-04-25T14:39:02;1.57;;;1.30;;
17384;SDS011;8810;48.680;8.894;2023-04-25T14:41:30;4.50;;;1.30;;
17384;SDS011;8810;48.680;8.894;2023-04-25T14:43:56;1.53;;;1.20;;
17384;SDS011;8810;48.680;8.894;2023-04-25T14:46:23;1.47;;;1.10;;
17384;SDS011;8810;48.680;8.894;2023-04-25T14:48:50;2.83;;;1.20;;
17384;SDS011;8810;48.680;8.894;2023-04-25T14:51:17;1.90;;;1.60;;
17384;SDS011;8810;48.680;8.894;2023-04-25T14:53:44;2.93;;;1.60;;
17384;SDS011;8810;48.680;8.894;2023-04-25T14:56:12;2.10;;;1.40;;
17384;SDS011;8810;48.680;8.894;2023-04-25T14:58:39;3.33;;;1.60;;
17384;SDS011;8810;48.680;8.894;2023-04-25T15:01:06;2.53;;;1.30;;
17384;SDS011;8810;48.680;8.894;2023-04-25T15:03:34;1.90;;;1.37;;
17384;SDS011;8810;48.680;8.894;2023-04-25T15:06:00;1.20;;;1.10;;